createdAt,value
2023-07-06T00:00:28.520Z,1008.53
2023-07-06T00:01:00.297Z,1008.63
2023-07-06T00:01:31.897Z,1008.63
2023-07-06T00:02:03.905Z,1008.63
2023-07-06T00:02:35.771Z,1008.43
2023-07-06T00:03:07.743Z,1008.43
2023-07-06T00:03:35.389Z,1008.63
2023-07-06T00:03:55.797Z,1008.63
2023-07-06T00:04:28.643Z,1008.63
2023-07-06T00:04:59.807Z,1008.43
2023-07-06T00:05:31.917Z,1008.43
2023-07-06T00:06:03.929Z,1008.74
2023-07-06T00:06:35.389Z,1008.74
2023-07-06T00:07:07.768Z,1008.74
2023-07-06T00:07:35.453Z,1008.53
2023-07-06T00:07:56.667Z,1008.53
2023-07-06T00:08:27.674Z,1008.53
2023-07-06T00:08:59.726Z,1008.63
2023-07-06T00:09:34.635Z,1008.63
2023-07-06T00:10:04.197Z,1008.74
2023-07-06T00:10:35.371Z,1008.63
2023-07-06T00:11:07.772Z,1008.63
2023-07-06T00:11:35.322Z,1008.33
2023-07-06T00:11:55.704Z,1008.33
2023-07-06T00:12:28.181Z,1008.33
2023-07-06T00:12:59.779Z,1008.53
2023-07-06T00:13:32.259Z,1008.53
2023-07-06T00:14:04.069Z,1008.53
2023-07-06T00:14:36.580Z,1008.53
2023-07-06T00:15:08.047Z,1008.53
2023-07-06T00:15:35.864Z,1008.33
2023-07-06T00:15:56.122Z,1008.33
2023-07-06T00:16:27.721Z,1008.33
2023-07-06T00:17:00.196Z,1008.63
2023-07-06T00:17:31.769Z,1008.63
2023-07-06T00:18:04.559Z,1008.53
2023-07-06T00:18:35.345Z,1008.53
2023-07-06T00:19:07.695Z,1008.53
2023-07-06T00:19:35.593Z,1008.43
2023-07-06T00:19:55.788Z,1008.43
2023-07-06T00:20:28.587Z,1008.43
2023-07-06T00:20:59.817Z,1008.43
2023-07-06T00:21:32.396Z,1008.43
2023-07-06T00:22:04.705Z,1008.43
2023-07-06T00:22:36.374Z,1008.43
2023-07-06T00:23:07.782Z,1008.43
2023-07-06T00:23:35.321Z,1008.53
2023-07-06T00:23:56.278Z,1008.53
2023-07-06T00:24:27.725Z,1008.53
2023-07-06T00:24:59.712Z,1008.33
2023-07-06T00:25:31.933Z,1008.33
2023-07-06T00:26:03.889Z,1008.53
2023-07-06T00:26:35.287Z,1008.43
2023-07-06T00:27:07.691Z,1008.43
2023-07-06T00:27:35.576Z,1008.43
2023-07-06T00:27:56.065Z,1008.43
2023-07-06T00:28:28.392Z,1008.43
2023-07-06T00:28:59.825Z,1008.43
2023-07-06T00:29:31.778Z,1008.43
2023-07-06T00:30:04.332Z,1008.43
2023-07-06T00:30:35.322Z,1008.43
2023-07-06T00:31:07.685Z,1008.43
2023-07-06T00:31:35.446Z,1008.53
2023-07-06T00:31:56.464Z,1008.53
2023-07-06T00:32:28.050Z,1008.53
2023-07-06T00:33:00.869Z,1008.43
2023-07-06T00:33:32.048Z,1008.43
2023-07-06T00:34:04.767Z,1008.53
2023-07-06T00:34:35.388Z,1008.23
2023-07-06T00:35:07.849Z,1008.23
2023-07-06T00:35:35.382Z,1008.43
2023-07-06T00:35:56.269Z,1008.43
2023-07-06T00:36:28.519Z,1008.43
2023-07-06T00:36:59.795Z,1008.53
2023-07-06T00:37:31.747Z,1008.53
2023-07-06T00:38:04.120Z,1008.43
2023-07-06T00:38:35.373Z,1008.23
2023-07-06T00:39:07.946Z,1008.23
2023-07-06T00:39:35.384Z,1008.33
2023-07-06T00:39:56.496Z,1008.33
2023-07-06T00:40:27.827Z,1008.33
2023-07-06T00:41:00.011Z,1008.43
2023-07-06T00:41:31.969Z,1008.43
2023-07-06T00:42:03.992Z,1008.43
2023-07-06T00:42:37.527Z,1008.63
2023-07-06T00:43:07.956Z,1008.63
2023-07-06T00:43:35.899Z,1008.33
2023-07-06T00:43:55.718Z,1008.33
2023-07-06T00:44:28.477Z,1008.33
2023-07-06T00:44:59.915Z,1008.63
2023-07-06T00:45:31.983Z,1008.63
2023-07-06T00:46:03.893Z,1008.53
2023-07-06T00:46:35.386Z,1008.43
2023-07-06T00:47:08.072Z,1008.43
2023-07-06T00:47:35.400Z,1008.53
2023-07-06T00:47:56.523Z,1008.53
2023-07-06T00:48:27.671Z,1008.53
2023-07-06T00:48:59.725Z,1008.53
2023-07-06T00:49:31.801Z,1008.53
2023-07-06T00:50:04.291Z,1008.43
2023-07-06T00:50:35.357Z,1008.43
2023-07-06T00:51:07.753Z,1008.43
2023-07-06T00:51:35.384Z,1008.53
2023-07-06T00:51:55.768Z,1008.53
2023-07-06T00:52:28.355Z,1008.53
2023-07-06T00:52:59.825Z,1008.33
2023-07-06T00:53:31.738Z,1008.33
2023-07-06T00:54:03.961Z,1008.53
2023-07-06T00:54:35.340Z,1008.23
2023-07-06T00:55:07.830Z,1008.23
2023-07-06T00:55:35.339Z,1008.43
2023-07-06T00:55:56.837Z,1008.43
2023-07-06T00:56:27.749Z,1008.43
2023-07-06T00:56:59.825Z,1008.43
2023-07-06T00:57:31.759Z,1008.43
2023-07-06T00:58:03.844Z,1008.43
2023-07-06T00:58:35.439Z,1008.43
2023-07-06T00:59:07.752Z,1008.43
2023-07-06T00:59:35.326Z,1008.53
2023-07-06T00:59:55.738Z,1008.53
2023-07-06T01:00:28.944Z,1008.53
2023-07-06T01:00:59.774Z,1008.43
2023-07-06T01:01:31.829Z,1008.43
2023-07-06T01:02:04.022Z,1008.53
2023-07-06T01:02:35.682Z,1008.53
2023-07-06T01:03:24.624Z,1008.53
2023-07-06T01:03:41.480Z,1008.33
2023-07-06T01:04:12.028Z,1008.33
2023-07-06T01:04:35.635Z,1008.53
2023-07-06T01:05:04.611Z,1008.53
2023-07-06T01:05:32.283Z,1008.53
2023-07-06T01:06:03.957Z,1008.43
2023-07-06T01:06:35.963Z,1008.53
2023-07-06T01:07:07.775Z,1008.53
2023-07-06T01:07:35.331Z,1008.43
2023-07-06T01:07:56.359Z,1008.43
2023-07-06T01:08:27.751Z,1008.43
2023-07-06T01:09:00.670Z,1008.53
2023-07-06T01:09:31.715Z,1008.53
2023-07-06T01:10:04.870Z,1008.53
2023-07-06T01:10:35.910Z,1008.43
2023-07-06T01:11:08.265Z,1008.43
2023-07-06T01:11:35.301Z,1008.43
2023-07-06T01:11:55.671Z,1008.43
2023-07-06T01:12:27.699Z,1008.43
2023-07-06T01:12:59.708Z,1008.63
2023-07-06T01:13:31.783Z,1008.63
2023-07-06T01:14:04.115Z,1008.53
2023-07-06T01:14:35.373Z,1008.63
2023-07-06T01:15:08.619Z,1008.63
2023-07-06T01:15:35.339Z,1008.23
2023-07-06T01:15:56.290Z,1008.23
2023-07-06T01:16:36.974Z,1008.33
2023-07-06T01:16:59.762Z,1008.33
2023-07-06T01:17:32.001Z,1008.33
2023-07-06T01:18:04.577Z,1008.43
2023-07-06T01:18:35.758Z,1008.63
2023-07-06T01:19:07.731Z,1008.63
2023-07-06T01:19:35.349Z,1008.53
2023-07-06T01:19:55.802Z,1008.53
2023-07-06T01:20:28.603Z,1008.53
2023-07-06T01:20:59.715Z,1008.43
2023-07-06T01:21:31.744Z,1008.43
2023-07-06T01:22:04.324Z,1008.33
2023-07-06T01:22:35.328Z,1008.43
2023-07-06T01:23:23.762Z,1008.43
2023-07-06T01:23:40.762Z,1008.33
2023-07-06T01:24:11.804Z,1008.33
2023-07-06T01:24:35.345Z,1008.33
2023-07-06T01:25:00.680Z,1008.33
2023-07-06T01:25:31.690Z,1008.33
2023-07-06T01:26:03.824Z,1008.43
2023-07-06T01:26:35.771Z,1008.53
2023-07-06T01:27:07.783Z,1008.53
2023-07-06T01:27:35.736Z,1008.43
2023-07-06T01:28:28.718Z,1008.43
2023-07-06T01:28:59.741Z,1008.43
2023-07-06T01:29:32.517Z,1008.43
2023-07-06T01:30:04.292Z,1008.33
2023-07-06T01:30:35.805Z,1008.43
2023-07-06T01:31:07.727Z,1008.43
2023-07-06T01:31:35.351Z,1008.53
2023-07-06T01:31:56.613Z,1008.53
2023-07-06T01:32:27.796Z,1008.53
2023-07-06T01:32:59.736Z,1008.43
2023-07-06T01:33:32.216Z,1008.43
2023-07-06T01:34:04.444Z,1008.63
2023-07-06T01:34:35.290Z,1008.63
2023-07-06T01:35:07.922Z,1008.63
2023-07-06T01:35:37.128Z,1008.33
2023-07-06T01:35:56.078Z,1008.33
2023-07-06T01:36:28.685Z,1008.33
2023-07-06T01:36:59.966Z,1008.53
2023-07-06T01:37:32.645Z,1008.53
2023-07-06T01:38:03.757Z,1008.53
2023-07-06T01:38:36.173Z,1008.53
2023-07-06T01:39:07.961Z,1008.53
2023-07-06T01:39:35.747Z,1008.53
2023-07-06T01:39:56.438Z,1008.53
2023-07-06T01:40:27.859Z,1008.53
2023-07-06T01:41:00.632Z,1008.43
2023-07-06T01:41:31.760Z,1008.43
2023-07-06T01:42:03.816Z,1008.23
2023-07-06T01:42:35.331Z,1008.74
2023-07-06T01:43:07.837Z,1008.74
2023-07-06T01:43:35.346Z,1008.53
2023-07-06T01:43:55.699Z,1008.53
2023-07-06T01:44:28.653Z,1008.53
2023-07-06T01:44:59.716Z,1008.53
2023-07-06T01:45:32.858Z,1008.53
2023-07-06T01:46:03.937Z,1008.63
2023-07-06T01:46:36.409Z,1008.43
2023-07-06T01:47:08.222Z,1008.43
2023-07-06T01:47:35.424Z,1008.43
2023-07-06T01:47:55.818Z,1008.43
2023-07-06T01:48:27.852Z,1008.43
2023-07-06T01:49:00.696Z,1008.53
2023-07-06T01:49:31.732Z,1008.53
2023-07-06T01:50:04.823Z,1008.63
2023-07-06T01:50:35.334Z,1008.53
2023-07-06T01:51:08.538Z,1008.53
2023-07-06T01:51:35.494Z,1008.63
2023-07-06T01:51:55.660Z,1008.63
2023-07-06T01:52:27.719Z,1008.63
2023-07-06T01:52:59.740Z,1008.53
2023-07-06T01:53:31.719Z,1008.53
2023-07-06T01:54:03.825Z,1008.74
2023-07-06T01:54:35.318Z,1008.53
2023-07-06T01:55:07.917Z,1008.53
2023-07-06T01:55:35.421Z,1008.63
2023-07-06T01:55:56.308Z,1008.63
2023-07-06T01:56:28.582Z,1008.63
2023-07-06T01:56:59.753Z,1008.53
2023-07-06T01:57:37.634Z,1008.53
2023-07-06T01:58:03.954Z,1008.84
2023-07-06T01:58:36.549Z,1008.63
2023-07-06T01:59:07.689Z,1008.63
2023-07-06T01:59:35.327Z,1008.74
2023-07-06T01:59:55.705Z,1008.74
2023-07-06T02:00:28.236Z,1008.74
2023-07-06T02:01:00.776Z,1008.53
2023-07-06T02:01:31.735Z,1008.53
2023-07-06T02:02:04.582Z,1008.63
2023-07-06T02:02:35.898Z,1008.43
2023-07-06T02:03:08.649Z,1008.43
2023-07-06T02:03:35.327Z,1008.33
2023-07-06T02:03:55.681Z,1008.33
2023-07-06T02:04:27.721Z,1008.33
2023-07-06T02:04:59.755Z,1008.53
2023-07-06T02:05:31.898Z,1008.53
2023-07-06T02:06:03.755Z,1008.53
2023-07-06T02:06:35.438Z,1008.53
2023-07-06T02:07:07.772Z,1008.53
2023-07-06T02:07:35.439Z,1008.53
2023-07-06T02:07:55.848Z,1008.53
2023-07-06T02:08:28.782Z,1008.53
2023-07-06T02:08:59.769Z,1008.43
2023-07-06T02:09:32.574Z,1008.43
2023-07-06T02:10:04.214Z,1008.53
2023-07-06T02:10:37.066Z,1008.53
2023-07-06T02:11:08.093Z,1008.53
2023-07-06T02:11:35.364Z,1008.63
2023-07-06T02:11:55.689Z,1008.63
2023-07-06T02:12:28.650Z,1008.63
2023-07-06T02:13:00.469Z,1008.74
2023-07-06T02:13:31.711Z,1008.74
2023-07-06T02:14:04.039Z,1008.74
2023-07-06T02:14:35.350Z,1008.63
2023-07-06T02:15:08.375Z,1008.63
2023-07-06T02:15:35.783Z,1008.63
2023-07-06T02:15:56.351Z,1008.63
2023-07-06T02:16:27.742Z,1008.63
2023-07-06T02:16:59.789Z,1008.63
2023-07-06T02:17:31.735Z,1008.63
2023-07-06T02:18:03.868Z,1008.53
2023-07-06T02:18:35.313Z,1008.53
2023-07-06T02:19:07.802Z,1008.53
2023-07-06T02:19:35.747Z,1008.43
2023-07-06T02:19:56.591Z,1008.43
2023-07-06T02:20:27.999Z,1008.43
2023-07-06T02:21:00.761Z,1008.63
2023-07-06T02:21:31.725Z,1008.63
2023-07-06T02:22:04.838Z,1008.63
2023-07-06T02:22:35.326Z,1008.63
2023-07-06T02:23:10.724Z,1008.63
2023-07-06T02:23:35.318Z,1008.53
2023-07-06T02:23:55.842Z,1008.53
2023-07-06T02:24:27.673Z,1008.53
2023-07-06T02:24:59.736Z,1008.53
2023-07-06T02:25:31.861Z,1008.53
2023-07-06T02:26:03.861Z,1008.53
2023-07-06T02:26:35.333Z,1008.63
2023-07-06T02:27:07.651Z,1008.63
2023-07-06T02:27:35.973Z,1008.33
2023-07-06T02:27:55.803Z,1008.33
2023-07-06T02:28:28.474Z,1008.33
2023-07-06T02:28:59.728Z,1008.74
2023-07-06T02:29:32.428Z,1008.74
2023-07-06T02:30:04.563Z,1008.63
2023-07-06T02:30:35.647Z,1008.63
2023-07-06T02:31:07.929Z,1008.63
2023-07-06T02:31:35.322Z,1008.63
2023-07-06T02:31:56.543Z,1008.63
2023-07-06T02:32:27.725Z,1008.63
2023-07-06T02:33:00.752Z,1008.63
2023-07-06T02:33:31.723Z,1008.63
2023-07-06T02:34:04.503Z,1008.53
2023-07-06T02:34:35.311Z,1008.53
2023-07-06T02:35:08.151Z,1008.53
2023-07-06T02:35:35.379Z,1008.63
2023-07-06T02:35:56.568Z,1008.63
2023-07-06T02:36:28.514Z,1008.63
2023-07-06T02:36:59.778Z,1008.74
2023-07-06T02:37:32.443Z,1008.74
2023-07-06T02:38:03.956Z,1008.43
2023-07-06T02:38:36.659Z,1008.53
2023-07-06T02:39:08.290Z,1008.53
2023-07-06T02:39:35.922Z,1008.43
2023-07-06T02:39:55.943Z,1008.43
2023-07-06T02:40:27.858Z,1008.43
2023-07-06T02:41:00.555Z,1008.63
2023-07-06T02:41:31.702Z,1008.63
2023-07-06T02:42:03.826Z,1008.63
2023-07-06T02:42:35.357Z,1008.63
2023-07-06T02:43:08.023Z,1008.63
2023-07-06T02:43:35.360Z,1008.53
2023-07-06T02:43:55.687Z,1008.53
2023-07-06T02:44:28.700Z,1008.53
2023-07-06T02:45:01.092Z,1008.43
2023-07-06T02:45:32.960Z,1008.43
2023-07-06T02:46:04.114Z,1008.53
2023-07-06T02:46:36.794Z,1008.43
2023-07-06T02:47:07.840Z,1008.43
2023-07-06T02:47:35.888Z,1008.53
2023-07-06T02:47:56.674Z,1008.53
2023-07-06T02:48:27.848Z,1008.53
2023-07-06T02:49:00.645Z,1008.53
2023-07-06T02:49:31.829Z,1008.53
2023-07-06T02:50:04.790Z,1008.43
2023-07-06T02:50:35.316Z,1008.53
2023-07-06T02:51:08.674Z,1008.53
2023-07-06T02:51:35.329Z,1008.33
2023-07-06T02:51:55.748Z,1008.33
2023-07-06T02:52:28.577Z,1008.33
2023-07-06T02:52:59.722Z,1008.63
2023-07-06T02:53:31.781Z,1008.63
2023-07-06T02:54:03.881Z,1008.43
2023-07-06T02:54:35.332Z,1008.43
2023-07-06T02:55:07.837Z,1008.43
2023-07-06T02:55:35.404Z,1008.63
2023-07-06T02:55:56.961Z,1008.63
2023-07-06T02:56:27.684Z,1008.63
2023-07-06T02:57:00.499Z,1008.63
2023-07-06T02:57:31.649Z,1008.63
2023-07-06T02:58:03.969Z,1008.53
2023-07-06T02:58:35.445Z,1008.63
2023-07-06T02:59:08.163Z,1008.63
2023-07-06T02:59:35.317Z,1008.43
2023-07-06T02:59:55.922Z,1008.43
2023-07-06T03:00:29.107Z,1008.43
2023-07-06T03:00:59.719Z,1008.53
2023-07-06T03:01:32.662Z,1008.53
2023-07-06T03:02:04.075Z,1008.53
2023-07-06T03:02:37.456Z,1008.63
2023-07-06T03:03:07.697Z,1008.63
2023-07-06T03:03:35.875Z,1008.74
2023-07-06T03:03:56.000Z,1008.74
2023-07-06T03:04:27.670Z,1008.74
2023-07-06T03:05:00.738Z,1008.53
2023-07-06T03:05:31.759Z,1008.53
2023-07-06T03:06:04.676Z,1008.63
2023-07-06T03:06:35.356Z,1008.74
2023-07-06T03:07:08.443Z,1008.74
2023-07-06T03:07:35.329Z,1008.74
2023-07-06T03:07:56.236Z,1008.74
2023-07-06T03:08:27.740Z,1008.74
2023-07-06T03:08:59.681Z,1008.63
2023-07-06T03:09:32.267Z,1008.63
2023-07-06T03:10:04.364Z,1008.74
2023-07-06T03:10:36.564Z,1008.43
2023-07-06T03:11:07.644Z,1008.43
2023-07-06T03:11:35.365Z,1008.53
2023-07-06T03:11:55.683Z,1008.53
2023-07-06T03:12:27.704Z,1008.53
2023-07-06T03:13:01.694Z,1008.63
2023-07-06T03:13:31.997Z,1008.63
2023-07-06T03:14:04.580Z,1008.63
2023-07-06T03:14:35.354Z,1008.84
2023-07-06T03:15:09.068Z,1008.84
2023-07-06T03:15:35.559Z,1008.63
2023-07-06T03:15:56.103Z,1008.63
2023-07-06T03:16:27.762Z,1008.63
2023-07-06T03:16:59.917Z,1008.63
2023-07-06T03:17:31.759Z,1008.63
2023-07-06T03:18:03.937Z,1008.53
2023-07-06T03:18:35.959Z,1008.74
2023-07-06T03:19:07.716Z,1008.74
2023-07-06T03:19:35.529Z,1008.63
2023-07-06T03:19:55.658Z,1008.63
2023-07-06T03:20:28.652Z,1008.63
2023-07-06T03:21:02.325Z,1008.63
2023-07-06T03:21:32.480Z,1008.63
2023-07-06T03:22:04.572Z,1008.53
2023-07-06T03:22:36.238Z,1008.63
2023-07-06T03:23:07.638Z,1008.63
2023-07-06T03:23:35.346Z,1008.94
2023-07-06T03:23:55.722Z,1008.94
2023-07-06T03:24:27.770Z,1008.94
2023-07-06T03:25:00.970Z,1008.43
2023-07-06T03:25:31.713Z,1008.43
2023-07-06T03:26:04.706Z,1008.74
2023-07-06T03:26:35.723Z,1008.74
2023-07-06T03:27:08.474Z,1008.74
2023-07-06T03:27:35.832Z,1008.74
2023-07-06T03:27:55.817Z,1008.74
2023-07-06T03:28:28.443Z,1008.74
2023-07-06T03:28:59.688Z,1008.74
2023-07-06T03:29:31.881Z,1008.74
2023-07-06T03:30:05.090Z,1008.94
2023-07-06T03:30:35.849Z,1008.53
2023-07-06T03:31:07.994Z,1008.53
2023-07-06T03:31:35.516Z,1008.63
2023-07-06T03:31:56.696Z,1008.63
2023-07-06T03:32:27.912Z,1008.63
2023-07-06T03:33:00.898Z,1008.84
2023-07-06T03:33:32.145Z,1008.84
2023-07-06T03:34:05.314Z,1008.74
2023-07-06T03:34:35.984Z,1008.84
2023-07-06T03:35:08.945Z,1008.84
2023-07-06T03:35:36.574Z,1008.74
2023-07-06T03:35:56.374Z,1008.74
2023-07-06T03:36:27.813Z,1008.74
2023-07-06T03:36:59.932Z,1008.63
2023-07-06T03:37:32.842Z,1008.63
2023-07-06T03:38:03.914Z,1008.94
2023-07-06T03:38:35.593Z,1008.94
2023-07-06T03:39:07.846Z,1008.94
2023-07-06T03:39:35.471Z,1008.74
2023-07-06T03:39:55.812Z,1008.74
2023-07-06T03:40:28.782Z,1008.74
2023-07-06T03:40:59.824Z,1008.53
2023-07-06T03:41:32.620Z,1008.53
2023-07-06T03:42:04.098Z,1008.63
2023-07-06T03:42:36.593Z,1008.74
2023-07-06T03:43:07.808Z,1008.74
2023-07-06T03:43:36.012Z,1008.94
2023-07-06T03:43:55.836Z,1008.94
2023-07-06T03:44:27.994Z,1008.94
2023-07-06T03:45:01.003Z,1008.84
2023-07-06T03:45:31.856Z,1008.84
2023-07-06T03:46:04.749Z,1008.84
2023-07-06T03:46:36.106Z,1008.74
2023-07-06T03:47:07.852Z,1008.74
2023-07-06T03:47:35.645Z,1008.94
2023-07-06T03:47:56.980Z,1008.94
2023-07-06T03:48:28.821Z,1008.94
2023-07-06T03:48:59.928Z,1008.74
2023-07-06T03:49:31.763Z,1008.74
2023-07-06T03:50:04.987Z,1008.74
2023-07-06T03:50:35.718Z,1008.74
2023-07-06T03:51:08.047Z,1008.74
2023-07-06T03:51:35.548Z,1008.94
2023-07-06T03:51:56.867Z,1008.94
2023-07-06T03:52:27.890Z,1008.94
2023-07-06T03:53:00.625Z,1008.94
2023-07-06T03:53:31.921Z,1008.94
2023-07-06T03:54:04.067Z,1008.53
2023-07-06T03:54:35.631Z,1008.74
2023-07-06T03:55:08.070Z,1008.74
2023-07-06T03:55:36.220Z,1008.84
2023-07-06T03:55:56.182Z,1008.84
2023-07-06T03:56:28.947Z,1008.84
2023-07-06T03:56:59.898Z,1008.74
2023-07-06T03:57:32.669Z,1008.74
2023-07-06T03:58:06.146Z,1008.94
2023-07-06T03:58:36.672Z,1008.84
2023-07-06T03:59:07.808Z,1008.84
2023-07-06T03:59:35.526Z,1008.84
2023-07-06T03:59:55.856Z,1008.84
2023-07-06T04:00:28.169Z,1008.84
2023-07-06T04:01:00.980Z,1009.04
2023-07-06T04:01:31.848Z,1009.04
2023-07-06T04:02:04.759Z,1008.74
2023-07-06T04:02:35.764Z,1009.04
2023-07-06T04:03:07.892Z,1009.04
2023-07-06T04:03:35.626Z,1008.74
2023-07-06T04:03:55.892Z,1008.74
2023-07-06T04:04:28.648Z,1008.74
2023-07-06T04:04:59.851Z,1008.94
2023-07-06T04:05:33.063Z,1008.94
2023-07-06T04:06:04.080Z,1008.84
2023-07-06T04:06:35.705Z,1008.84
2023-07-06T04:07:07.861Z,1008.84
2023-07-06T04:07:35.461Z,1008.94
2023-07-06T04:07:56.697Z,1008.94
2023-07-06T04:08:27.938Z,1008.94
2023-07-06T04:08:59.822Z,1008.94
2023-07-06T04:09:31.892Z,1008.94
2023-07-06T04:10:04.104Z,1009.04
2023-07-06T04:10:35.518Z,1008.74
2023-07-06T04:11:07.869Z,1008.74
2023-07-06T04:11:35.579Z,1008.84
2023-07-06T04:11:55.828Z,1008.84
2023-07-06T04:12:28.615Z,1008.84
2023-07-06T04:12:59.892Z,1009.04
2023-07-06T04:13:32.862Z,1009.04
2023-07-06T04:14:04.652Z,1008.84
2023-07-06T04:14:35.562Z,1008.94
2023-07-06T04:15:08.067Z,1008.94
2023-07-06T04:15:35.505Z,1008.94
2023-07-06T04:15:57.179Z,1008.94
2023-07-06T04:16:28.165Z,1008.94
2023-07-06T04:17:00.489Z,1009.04
2023-07-06T04:17:31.844Z,1009.04
2023-07-06T04:18:04.938Z,1008.74
2023-07-06T04:18:35.885Z,1008.94
2023-07-06T04:19:08.624Z,1008.94
2023-07-06T04:19:35.472Z,1008.94
2023-07-06T04:19:55.882Z,1008.94
2023-07-06T04:20:28.099Z,1008.94
2023-07-06T04:21:00.150Z,1009.21
2023-07-06T04:21:31.864Z,1009.21
2023-07-06T04:22:04.646Z,1008.94
2023-07-06T04:22:35.604Z,1008.94
2023-07-06T04:23:08.011Z,1008.94
2023-07-06T04:23:35.556Z,1008.94
2023-07-06T04:23:55.900Z,1008.94
2023-07-06T04:24:28.630Z,1008.94
2023-07-06T04:24:59.804Z,1009.11
2023-07-06T04:25:33.087Z,1009.11
2023-07-06T04:26:04.050Z,1008.84
2023-07-06T04:26:36.515Z,1009.04
2023-07-06T04:27:07.928Z,1009.04
2023-07-06T04:27:35.515Z,1009.21
2023-07-06T04:27:55.776Z,1009.21
2023-07-06T04:28:27.872Z,1009.21
2023-07-06T04:29:00.868Z,1008.94
2023-07-06T04:29:31.943Z,1008.94
2023-07-06T04:30:04.755Z,1009.21
2023-07-06T04:30:35.545Z,1009.04
2023-07-06T04:31:07.940Z,1009.04
2023-07-06T04:31:35.588Z,1009.21
2023-07-06T04:31:55.980Z,1009.21
2023-07-06T04:32:28.618Z,1009.21
2023-07-06T04:32:59.921Z,1008.94
2023-07-06T04:33:31.870Z,1008.94
2023-07-06T04:34:05.068Z,1009.04
2023-07-06T04:34:35.751Z,1009.04
2023-07-06T04:35:08.102Z,1009.04
2023-07-06T04:35:37.517Z,1008.84
2023-07-06T04:35:57.016Z,1008.84
2023-07-06T04:36:27.919Z,1008.84
2023-07-06T04:36:59.924Z,1008.94
2023-07-06T04:37:31.851Z,1008.94
2023-07-06T04:38:04.053Z,1009.04
2023-07-06T04:38:35.693Z,1009.04
2023-07-06T04:39:07.903Z,1009.04
2023-07-06T04:39:35.551Z,1008.94
2023-07-06T04:39:55.953Z,1008.94
2023-07-06T04:40:28.803Z,1008.94
2023-07-06T04:41:00.241Z,1008.94
2023-07-06T04:41:32.764Z,1008.94
2023-07-06T04:42:04.052Z,1008.94
2023-07-06T04:42:37.337Z,1009.11
2023-07-06T04:43:24.134Z,1009.11
2023-07-06T04:43:41.038Z,1008.94
2023-07-06T04:44:11.932Z,1008.94
2023-07-06T04:44:35.509Z,1009.11
2023-07-06T04:45:01.104Z,1009.11
2023-07-06T04:45:31.907Z,1009.11
2023-07-06T04:46:04.801Z,1009.04
2023-07-06T04:46:35.644Z,1008.94
2023-07-06T04:47:08.706Z,1008.94
2023-07-06T04:47:35.608Z,1009.04
2023-07-06T04:47:56.302Z,1009.04
2023-07-06T04:48:28.690Z,1009.04
2023-07-06T04:48:59.782Z,1009.11
2023-07-06T04:49:31.799Z,1009.11
2023-07-06T04:50:04.316Z,1009.04
2023-07-06T04:50:35.581Z,1009.11
2023-07-06T04:51:07.839Z,1009.11
2023-07-06T04:51:35.551Z,1008.94
2023-07-06T04:51:57.327Z,1008.94
2023-07-06T04:52:27.783Z,1008.94
2023-07-06T04:53:00.671Z,1008.94
2023-07-06T04:53:31.821Z,1008.94
2023-07-06T04:54:04.703Z,1009.11
2023-07-06T04:54:35.850Z,1008.94
2023-07-06T04:55:08.479Z,1008.94
2023-07-06T04:55:35.891Z,1009.11
2023-07-06T04:55:56.241Z,1009.11
2023-07-06T04:56:28.627Z,1009.11
2023-07-06T04:56:59.805Z,1008.84
2023-07-06T04:57:32.592Z,1008.84
2023-07-06T04:58:04.163Z,1009.11
2023-07-06T04:58:35.558Z,1009.04
2023-07-06T04:59:07.761Z,1009.04
2023-07-06T04:59:35.547Z,1009.21
2023-07-06T04:59:56.626Z,1009.21
2023-07-06T05:00:28.333Z,1009.21
2023-07-06T05:01:00.795Z,1009.11
2023-07-06T05:01:32.027Z,1009.11
2023-07-06T05:02:04.069Z,1009.04
2023-07-06T05:02:35.585Z,1009.04
2023-07-06T05:03:08.342Z,1009.04
2023-07-06T05:03:35.581Z,1008.94
2023-07-06T05:03:56.202Z,1008.94
2023-07-06T05:04:28.538Z,1008.94
2023-07-06T05:04:59.808Z,1009.21
2023-07-06T05:05:31.974Z,1009.21
2023-07-06T05:06:04.132Z,1009.21
2023-07-06T05:06:35.973Z,1009.21
2023-07-06T05:07:07.752Z,1009.21
2023-07-06T05:07:35.551Z,1009.41
2023-07-06T05:07:56.700Z,1009.41
2023-07-06T05:08:28.043Z,1009.41
2023-07-06T05:09:00.901Z,1009.11
2023-07-06T05:09:31.901Z,1009.11
2023-07-06T05:10:05.484Z,1009.21
2023-07-06T05:10:36.080Z,1009.21
2023-07-06T05:11:07.824Z,1009.21
2023-07-06T05:11:35.933Z,1009.21
2023-07-06T05:11:55.852Z,1009.21
2023-07-06T05:12:28.571Z,1009.21
2023-07-06T05:12:59.839Z,1009.11
2023-07-06T05:13:32.682Z,1009.11
2023-07-06T05:14:04.371Z,1009.31
2023-07-06T05:14:35.523Z,1009.11
2023-07-06T05:15:08.045Z,1009.11
2023-07-06T05:15:36.086Z,1009.11
2023-07-06T05:15:57.362Z,1009.11
2023-07-06T05:16:27.910Z,1009.11
2023-07-06T05:16:59.827Z,1009.11
2023-07-06T05:17:31.823Z,1009.11
2023-07-06T05:18:04.142Z,1009.31
2023-07-06T05:18:35.982Z,1009.31
2023-07-06T05:19:07.826Z,1009.31
2023-07-06T05:19:35.535Z,1009.11
2023-07-06T05:19:56.160Z,1009.11
2023-07-06T05:20:29.910Z,1009.11
2023-07-06T05:20:59.801Z,1009.41
2023-07-06T05:21:32.755Z,1009.41
2023-07-06T05:22:04.363Z,1009.21
2023-07-06T05:22:35.543Z,1009.11
2023-07-06T05:23:07.840Z,1009.11
2023-07-06T05:23:35.596Z,1009.21
2023-07-06T05:23:56.849Z,1009.21
2023-07-06T05:24:27.815Z,1009.21
2023-07-06T05:25:00.884Z,1009.21
2023-07-06T05:25:31.820Z,1009.21
2023-07-06T05:26:05.496Z,1009.11
2023-07-06T05:26:35.531Z,1009.31
2023-07-06T05:27:07.899Z,1009.31
2023-07-06T05:27:35.728Z,1009.31
2023-07-06T05:27:55.844Z,1009.31
2023-07-06T05:28:28.737Z,1009.31
2023-07-06T05:28:59.835Z,1009.31
2023-07-06T05:29:32.442Z,1009.31
2023-07-06T05:30:05.696Z,1009.11
2023-07-06T05:30:36.282Z,1009.31
2023-07-06T05:31:07.840Z,1009.31
2023-07-06T05:31:35.683Z,1009.31
2023-07-06T05:31:57.068Z,1009.31
2023-07-06T05:32:27.917Z,1009.31
2023-07-06T05:32:59.880Z,1009.11
2023-07-06T05:33:31.948Z,1009.11
2023-07-06T05:34:04.693Z,1009.11
2023-07-06T05:34:35.517Z,1009.31
2023-07-06T05:35:08.004Z,1009.31
2023-07-06T05:35:35.521Z,1009.31
2023-07-06T05:36:11.754Z,1009.31
2023-07-06T05:36:35.542Z,1009.04
2023-07-06T05:36:59.917Z,1009.04
2023-07-06T05:37:36.209Z,1009.04
2023-07-06T05:38:04.153Z,1009.11
2023-07-06T05:38:36.842Z,1009.21
2023-07-06T05:39:07.812Z,1009.21
2023-07-06T05:39:35.563Z,1009.21
2023-07-06T05:39:56.033Z,1009.21
2023-07-06T05:40:28.053Z,1009.21
2023-07-06T05:41:00.905Z,1009.11
2023-07-06T05:41:31.667Z,1009.11
2023-07-06T05:42:04.397Z,1009.21
2023-07-06T05:42:37.675Z,1009.31
2023-07-06T05:43:07.813Z,1009.31
2023-07-06T05:43:35.624Z,1009.31
2023-07-06T05:43:56.267Z,1009.31
2023-07-06T05:44:27.906Z,1009.31
2023-07-06T05:45:01.124Z,1009.11
2023-07-06T05:45:31.845Z,1009.11
2023-07-06T05:46:04.283Z,1009.31
2023-07-06T05:46:35.621Z,1009.31
2023-07-06T05:47:07.938Z,1009.31
2023-07-06T05:47:35.920Z,1009.31
2023-07-06T05:47:56.073Z,1009.31
2023-07-06T05:48:34.212Z,1009.31
2023-07-06T05:49:07.194Z,1009.31
2023-07-06T05:49:31.871Z,1009.31
2023-07-06T05:50:05.156Z,1009.41
2023-07-06T05:50:37.483Z,1009.41
2023-07-06T05:51:07.998Z,1009.41
2023-07-06T05:51:35.620Z,1009.11
2023-07-06T05:51:56.043Z,1009.11
2023-07-06T05:52:28.025Z,1009.11
2023-07-06T05:53:04.646Z,1009.51
2023-07-06T05:53:32.153Z,1009.51
2023-07-06T05:54:05.212Z,1009.21
2023-07-06T05:54:36.769Z,1009.41
2023-07-06T05:55:08.498Z,1009.41
2023-07-06T05:55:35.867Z,1009.41
2023-07-06T05:55:56.626Z,1009.41
2023-07-06T05:56:28.034Z,1009.41
2023-07-06T05:57:00.026Z,1009.21
2023-07-06T05:57:31.984Z,1009.21
2023-07-06T05:58:05.165Z,1009.21
2023-07-06T05:58:35.633Z,1009.31
2023-07-06T05:59:08.775Z,1009.31
2023-07-06T05:59:35.746Z,1009.31
2023-07-06T05:59:56.323Z,1009.31
2023-07-06T06:00:28.471Z,1009.31
2023-07-06T06:00:59.933Z,1009.31
2023-07-06T06:01:31.934Z,1009.31
2023-07-06T06:02:04.742Z,1009.11
2023-07-06T06:02:35.711Z,1009.21
2023-07-06T06:03:07.941Z,1009.21
2023-07-06T06:03:35.845Z,1009.31